Time;durP1;ratioP1;P1;durP2;ratioP2;P2;SDS_P1;SDS_P2;PMS_P1;PMS_P2;Temp;Humidity;BMP_temperature;BMP_pressure;BME280_temperature;BME280_humidity;BME280_pressure;Samples;Min_cycle;Max_cycle;Signal;HPM_P1;HPM_P2
2022/09/06 00:01:22;;;;;;;8.75;3.53;;;19.60;99.90;;;;;;5045461;28;20055;-72
2022/09/06 00:03:48;;;;;;;9.70;3.30;;;19.60;99.90;;;;;;5046227;28;20040;-72
2022/09/06 00:06:17;;;;;;;8.73;3.60;;;19.50;99.90;;;;;;5013786;28;20274;-72
2022/09/06 00:08:44;;;;;;;11.77;3.38;;;19.50;99.90;;;;;;5065387;28;20531;-72
2022/09/06 00:11:10;;;;;;;9.98;3.50;;;19.50;99.90;;;;;;5043386;28;20055;-72
2022/09/06 00:13:37;;;;;;;8.82;3.80;;;19.40;99.90;;;;;;5045365;28;20046;-71
2022/09/06 00:16:08;;;;;;;10.77;3.63;;;19.40;99.90;;;;;;5030577;28;20313;-71
2022/09/06 00:18:33;;;;;;;7.97;3.28;;;19.30;99.90;;;;;;5060552;28;20624;-72
2022/09/06 00:20:59;;;;;;;8.18;3.33;;;19.30;99.90;;;;;;5021548;28;20052;-72
2022/09/06 00:23:25;;;;;;;7.80;3.50;;;19.30;99.90;;;;;;5063667;28;20040;-72
2022/09/06 00:25:50;;;;;;;9.30;3.10;;;19.30;99.90;;;;;;5026951;28;20822;-72
2022/09/06 00:28:16;;;;;;;8.38;3.40;;;19.30;99.90;;;;;;5030736;28;20084;-72
2022/09/06 00:30:42;;;;;;;8.82;3.17;;;19.20;99.90;;;;;;5023923;28;20490;-71
2022/09/06 00:33:07;;;;;;;9.95;3.30;;;19.20;99.90;;;;;;5031081;28;20063;-72
2022/09/06 00:35:33;;;;;;;8.73;3.58;;;19.20;99.90;;;;;;5045820;28;20075;-72
2022/09/06 00:38:00;;;;;;;10.50;3.67;;;19.20;99.90;;;;;;5045670;28;20044;-72
2022/09/06 00:40:28;;;;;;;12.20;3.53;;;19.20;99.90;;;;;;5028674;28;20045;-72
2022/09/06 00:42:55;;;;;;;9.13;3.50;;;19.10;99.90;;;;;;5028723;28;20125;-72
2022/09/06 00:45:22;;;;;;;7.93;3.20;;;19.10;99.90;;;;;;5047581;28;20046;-72
2022/09/06 00:47:48;;;;;;;11.52;3.50;;;19.00;99.90;;;;;;5029065;28;20028;-72
2022/09/06 00:50:16;;;;;;;9.48;3.60;;;19.00;99.90;;;;;;5041994;28;20037;-71
2022/09/06 00:52:44;;;;;;;11.40;3.30;;;19.00;99.90;;;;;;5077656;28;20067;-71
2022/09/06 00:55:11;;;;;;;8.13;3.40;;;19.00;99.90;;;;;;5046840;28;20043;-71
2022/09/06 00:57:37;;;;;;;8.63;3.88;;;19.00;99.90;;;;;;5040211;28;20126;-72
2022/09/06 01:00:07;;;;;;;8.20;3.35;;;19.00;99.90;;;;;;5027821;28;20072;-72
2022/09/06 01:02:33;;;;;;;8.65;3.35;;;18.90;99.90;;;;;;5029705;28;20157;-72
2022/09/06 01:04:59;;;;;;;8.77;3.58;;;18.90;99.90;;;;;;5026388;28;20563;-72
2022/09/06 01:08:03;;;;;;;8.10;3.58;;;18.90;99.90;;;;;;5029721;28;21475;-72
2022/09/06 01:11:05;;;;;;;8.00;3.55;;;18.90;99.90;;;;;;4990873;28;20060;-72
2022/09/06 01:13:56;;;;;;;8.98;3.72;;;18.90;99.90;;;;;;5037513;28;20392;-72
2022/09/06 01:16:48;;;;;;;9.80;3.47;;;18.90;99.90;;;;;;5045471;28;20094;-72
2022/09/06 01:19:35;;;;;;;9.38;3.63;;;18.90;99.90;;;;;;5028154;28;20063;-72
2022/09/06 01:22:12;;;;;;;8.23;3.50;;;18.80;99.90;;;;;;5041496;28;20044;-73
2022/09/06 01:25:04;;;;;;;7.95;3.40;;;18.80;99.90;;;;;;5029787;28;20044;-72
2022/09/06 01:27:32;;;;;;;8.38;3.53;;;18.80;99.90;;;;;;5007273;28;20059;-73
2022/09/06 01:30:05;;;;;;;9.45;3.78;;;18.80;99.90;;;;;;5057719;28;20102;-71
2022/09/06 01:33:05;;;;;;;9.00;3.60;;;18.80;99.90;;;;;;5047085;28;20044;-71
2022/09/06 01:35:44;;;;;;;9.02;3.45;;;18.80;99.90;;;;;;5063055;28;20043;-71
2022/09/06 01:38:10;;;;;;;7.88;3.47;;;18.80;99.90;;;;;;5061773;28;20102;-71
2022/09/06 01:40:35;;;;;;;7.75;3.47;;;18.80;99.90;;;;;;5023818;28;20136;-72
2022/09/06 01:43:08;;;;;;;10.35;3.72;;;18.80;99.90;;;;;;5027674;28;20457;-73
2022/09/06 01:45:55;;;;;;;8.90;3.33;;;18.80;99.90;;;;;;5045622;28;20044;-72
2022/09/06 01:48:33;;;;;;;9.32;3.70;;;18.80;99.90;;;;;;5043448;28;20128;-72
2022/09/06 01:51:26;;;;;;;8.45;3.60;;;18.80;99.90;;;;;;5042699;28;20056;-72
2022/09/06 01:54:06;;;;;;;9.68;3.80;;;19.90;99.90;;;;;;5061508;28;20098;-72
2022/09/06 01:56:56;;;;;;;10.02;3.58;;;18.70;99.90;;;;;;5029660;28;20036;-72
2022/09/06 02:00:02;;;;;;;8.70;3.63;;;18.70;99.90;;;;;;5062210;28;20044;-72
2022/09/06 02:03:10;;;;;;;7.90;3.50;;;18.80;99.90;;;;;;5074858;28;20517;-72
2022/09/06 02:05:46;;;;;;;8.00;3.38;;;18.70;99.90;;;;;;5043170;28;20036;-71
2022/09/06 02:08:28;;;;;;;7.72;3.30;;;18.70;99.90;;;;;;5016145;28;20042;-71
2022/09/06 02:11:06;;;;;;;10.20;3.67;;;18.70;99.90;;;;;;5044911;28;20064;-71
2022/09/06 02:13:40;;;;;;;9.38;3.97;;;18.70;99.90;;;;;;5076138;28;20068;-72
2022/09/06 02:16:09;;;;;;;10.20;3.88;;;18.70;99.90;;;;;;5062422;28;20127;-72
2022/09/06 02:18:49;;;;;;;9.32;3.88;;;18.70;99.90;;;;;;5026976;28;20037;-72
2022/09/06 02:21:19;;;;;;;9.40;3.85;;;18.70;99.90;;;;;;5042630;28;20587;-71
2022/09/06 02:23:46;;;;;;;10.80;3.63;;;18.70;99.90;;;;;;5025321;28;20036;-72
2022/09/06 02:26:16;;;;;;;8.07;3.75;;;18.60;99.90;;;;;;5028977;28;20040;-73
2022/09/06 02:28:42;;;;;;;9.55;4.03;;;18.60;99.90;;;;;;5043144;28;20530;-72
2022/09/06 02:31:31;;;;;;;8.02;3.65;;;18.60;99.90;;;;;;5027529;28;20044;-71
2022/09/06 02:33:57;;;;;;;8.10;3.63;;;18.60;99.90;;;;;;5042594;28;20128;-71
2022/09/06 02:36:23;;;;;;;10.30;3.83;;;18.60;99.90;;;;;;5043204;28;20399;-72
2022/09/06 02:38:49;;;;;;;7.78;3.72;;;18.60;99.90;;;;;;5043782;28;20036;-72
2022/09/06 02:41:21;;;;;;;7.97;3.88;;;18.60;99.90;;;;;;5062063;28;20145;-71
2022/09/06 02:43:47;;;;;;;8.90;4.25;;;;;;;;;;5042245;28;20033;-71
2022/09/06 02:46:13;;;;;;;9.55;4.22;;;18.50;99.90;;;;;;5044276;28;20071;-71
2022/09/06 02:48:39;;;;;;;8.85;3.88;;;18.60;99.90;;;;;;5041132;28;20096;-71
2022/09/06 02:51:06;;;;;;;10.65;4.57;;;18.50;99.90;;;;;;5072586;28;20051;-72
2022/09/06 02:53:32;;;;;;;7.75;3.67;;;18.50;99.90;;;;;;5025233;28;20071;-71
2022/09/06 02:55:58;;;;;;;8.52;3.78;;;18.50;99.90;;;;;;5037996;28;20495;-71
2022/09/06 02:58:24;;;;;;;8.82;4.00;;;18.50;99.90;;;;;;4993281;28;20045;-71
2022/09/06 03:00:51;;;;;;;9.93;4.10;;;18.50;99.90;;;;;;5041734;28;20061;-71
2022/09/06 03:03:18;;;;;;;8.15;4.00;;;18.40;99.90;;;;;;5025565;28;20041;-71
2022/09/06 03:05:53;;;;;;;9.75;4.28;;;18.40;99.90;;;;;;5023701;28;20068;-71
2022/09/06 03:08:20;;;;;;;9.23;3.78;;;19.20;99.90;;;;;;5008768;28;20037;-71
2022/09/06 03:10:54;;;;;;;9.15;4.00;;;18.30;99.90;;;;;;5023440;28;20041;-72
2022/09/06 03:13:21;;;;;;;9.07;4.15;;;18.20;99.90;;;;;;5023074;28;20585;-71
2022/09/06 03:15:51;;;;;;;10.70;4.60;;;18.20;99.90;;;;;;5030948;28;20037;-71
2022/09/06 03:18:17;;;;;;;11.35;4.28;;;18.10;99.90;;;;;;5045483;28;20428;-71
2022/09/06 03:20:43;;;;;;;9.52;4.50;;;18.10;99.90;;;;;;5005665;28;20051;-72
2022/09/06 03:23:08;;;;;;;12.15;4.63;;;18.00;99.90;;;;;;5011147;28;20052;-72
2022/09/06 03:25:34;;;;;;;11.23;4.68;;;18.00;99.90;;;;;;5011718;28;20443;-72
2022/09/06 03:28:00;;;;;;;10.00;5.15;;;17.90;99.90;;;;;;5028169;28;20223;-72
2022/09/06 03:30:26;;;;;;;10.82;4.45;;;17.90;99.90;;;;;;4997617;28;20045;-72
2022/09/06 03:32:52;;;;;;;10.05;4.60;;;17.90;99.90;;;;;;5029336;28;20033;-71
2022/09/06 03:35:18;;;;;;;8.63;4.53;;;17.90;99.90;;;;;;5010136;28;20045;-72
2022/09/06 03:37:44;;;;;;;8.85;4.40;;;17.80;99.90;;;;;;5045226;28;20032;-73
2022/09/06 03:40:13;;;;;;;9.43;4.32;;;17.80;99.90;;;;;;5041744;28;20100;-72
2022/09/06 03:42:39;;;;;;;8.95;4.93;;;17.70;99.90;;;;;;5042942;28;20047;-72
2022/09/06 03:45:06;;;;;;;9.32;4.55;;;17.70;99.90;;;;;;5025783;28;20036;-72
2022/09/06 03:47:32;;;;;;;10.57;4.57;;;17.70;99.90;;;;;;5012374;28;20079;-72
2022/09/06 03:49:57;;;;;;;10.20;5.03;;;17.70;99.90;;;;;;5011237;28;20045;-72
2022/09/06 03:52:23;;;;;;;12.80;5.10;;;17.70;99.90;;;;;;5009135;28;20036;-72
2022/09/06 03:54:49;;;;;;;10.38;5.07;;;17.70;99.90;;;;;;5041184;28;20404;-72
2022/09/06 03:57:15;;;;;;;9.35;4.75;;;17.70;99.90;;;;;;5012583;28;20060;-71
2022/09/06 03:59:40;;;;;;;9.90;5.00;;;17.70;99.90;;;;;;5044215;28;20099;-71
2022/09/06 04:02:06;;;;;;;9.45;4.90;;;17.70;99.90;;;;;;5042149;28;20029;-71
2022/09/06 04:04:32;;;;;;;10.13;5.00;;;17.70;99.90;;;;;;5041241;28;20037;-71
2022/09/06 04:06:58;;;;;;;9.52;4.90;;;17.70;99.90;;;;;;5038736;28;20060;-71
2022/09/06 04:09:24;;;;;;;9.27;4.70;;;17.70;99.90;;;;;;5018544;28;20033;-71
2022/09/06 04:11:50;;;;;;;11.60;5.15;;;17.70;99.90;;;;;;5016796;28;20101;-71
2022/09/06 04:14:15;;;;;;;9.07;4.95;;;17.70;99.90;;;;;;5042097;28;20049;-72
2022/09/06 04:16:41;;;;;;;10.50;4.85;;;17.70;99.90;;;;;;5026023;28;20045;-72
2022/09/06 04:19:07;;;;;;;10.60;5.05;;;17.60;99.90;;;;;;5026812;28;20102;-72
2022/09/06 04:21:32;;;;;;;9.73;4.97;;;17.70;99.90;;;;;;5043677;28;20029;-72
2022/09/06 04:23:58;;;;;;;9.07;5.13;;;17.70;99.90;;;;;;5041596;28;20139;-72
2022/09/06 04:26:24;;;;;;;9.20;4.60;;;17.30;99.90;;;;;;5010907;28;20111;-72
2022/09/06 04:28:50;;;;;;;9.43;5.05;;;17.70;99.90;;;;;;5027243;28;20036;-72
2022/09/06 04:31:16;;;;;;;10.50;5.38;;;17.70;99.90;;;;;;5028270;28;20041;-72
2022/09/06 04:33:42;;;;;;;11.07;5.70;;;17.70;99.90;;;;;;5046051;28;20487;-72
2022/09/06 04:36:09;;;;;;;9.48;5.43;;;17.70;99.90;;;;;;5043536;28;20041;-72
2022/09/06 04:38:41;;;;;;;10.07;5.20;;;17.70;99.90;;;;;;5042172;28;20159;-72
2022/09/06 04:41:11;;;;;;;9.98;5.43;;;17.70;99.90;;;;;;5042098;28;20029;-72
2022/09/06 04:43:37;;;;;;;8.98;4.88;;;17.70;99.90;;;;;;5043188;28;20109;-71
2022/09/06 04:46:14;;;;;;;11.25;5.13;;;17.70;99.90;;;;;;5004569;28;20116;-71
2022/09/06 04:48:40;;;;;;;8.98;4.95;;;17.70;99.90;;;;;;5041152;28;20057;-72
2022/09/06 04:51:06;;;;;;;10.70;5.20;;;17.80;99.90;;;;;;5042775;28;20055;-72
2022/09/06 04:53:32;;;;;;;9.65;5.10;;;17.80;99.90;;;;;;5025230;28;20037;-71
2022/09/06 04:55:58;;;;;;;9.63;5.57;;;17.80;99.90;;;;;;5023500;28;20132;-72
2022/09/06 04:58:23;;;;;;;9.68;5.35;;;17.80;99.90;;;;;;5036551;28;21328;-71
2022/09/06 05:00:50;;;;;;;11.45;5.88;;;17.80;99.90;;;;;;5009036;28;20106;-71
2022/09/06 05:03:16;;;;;;;9.10;5.35;;;17.60;99.90;;;;;;5020398;28;20035;-72
2022/09/06 05:05:41;;;;;;;10.77;5.63;;;17.80;99.90;;;;;;5008111;28;20116;-72
2022/09/06 05:08:07;;;;;;;10.43;5.28;;;17.80;99.90;;;;;;5024435;28;20379;-71
2022/09/06 05:10:33;;;;;;;9.90;5.95;;;17.80;99.90;;;;;;5029441;28;20120;-71
2022/09/06 05:12:59;;;;;;;10.77;5.45;;;17.80;99.90;;;;;;5030026;28;20324;-71
2022/09/06 05:15:24;;;;;;;11.02;5.97;;;17.80;99.90;;;;;;5013842;28;20036;-71
2022/09/06 05:17:50;;;;;;;10.75;6.10;;;17.80;99.90;;;;;;5010021;28;20111;-72
2022/09/06 05:20:16;;;;;;;10.43;5.68;;;17.80;99.90;;;;;;4995175;28;20037;-71
2022/09/06 05:22:42;;;;;;;10.40;5.72;;;17.80;99.90;;;;;;5059940;28;20389;-71
2022/09/06 05:25:09;;;;;;;10.20;6.10;;;17.80;99.90;;;;;;5029904;28;20131;-71
2022/09/06 05:27:35;;;;;;;10.43;6.13;;;17.80;99.90;;;;;;5028463;28;20033;-71
2022/09/06 05:30:02;;;;;;;13.35;6.20;;;17.80;99.90;;;;;;5013440;28;20137;-72
2022/09/06 05:32:28;;;;;;;11.82;6.43;;;17.80;99.90;;;;;;5028272;28;20047;-73
2022/09/06 05:34:54;;;;;;;10.27;5.85;;;17.80;99.90;;;;;;5011236;28;20064;-72
2022/09/06 05:37:20;;;;;;;13.65;6.57;;;17.80;99.90;;;;;;5022960;28;20519;-72
2022/09/06 05:39:45;;;;;;;10.32;6.38;;;17.80;99.90;;;;;;5010553;28;20080;-72
2022/09/06 05:42:11;;;;;;;12.77;6.10;;;17.80;99.90;;;;;;5006908;28;20033;-73
2022/09/06 05:44:37;;;;;;;13.20;6.50;;;17.80;99.90;;;;;;5027790;28;20064;-72
2022/09/06 05:47:03;;;;;;;10.85;6.07;;;17.80;99.90;;;;;;5024469;28;20051;-72
2022/09/06 05:49:30;;;;;;;11.48;6.57;;;17.80;99.90;;;;;;5021558;28;20400;-72
2022/09/06 05:51:56;;;;;;;9.82;6.18;;;17.80;99.90;;;;;;5025489;28;20045;-71
2022/09/06 05:54:22;;;;;;;13.77;6.85;;;17.80;99.90;;;;;;5043245;28;20051;-71
2022/09/06 05:56:48;;;;;;;10.32;6.35;;;17.80;99.90;;;;;;5013360;28;20053;-72
2022/09/06 05:59:17;;;;;;;11.25;6.60;;;17.80;99.90;;;;;;5040277;28;20087;-72
2022/09/06 06:01:48;;;;;;;10.05;6.32;;;17.80;99.90;;;;;;5023834;28;20083;-71
2022/09/06 06:04:14;;;;;;;12.40;6.55;;;17.90;99.90;;;;;;5043678;28;20076;-71
2022/09/06 06:06:39;;;;;;;11.90;7.20;;;17.90;99.90;;;;;;5053871;28;20072;-72
2022/09/06 06:09:05;;;;;;;12.45;7.63;;;17.90;99.90;;;;;;5039402;28;20491;-71
2022/09/06 06:11:31;;;;;;;12.90;6.80;;;17.90;99.90;;;;;;5014391;28;20127;-71
2022/09/06 06:13:57;;;;;;;13.70;6.47;;;17.90;99.90;;;;;;5008494;28;20145;-72
2022/09/06 06:16:24;;;;;;;16.90;7.53;;;18.00;99.90;;;;;;5040869;28;20045;-71
2022/09/06 06:18:50;;;;;;;11.88;6.80;;;18.00;99.90;;;;;;5021396;28;20059;-71
2022/09/06 06:21:20;;;;;;;13.73;7.00;;;18.00;99.90;;;;;;5013283;28;20272;-71
2022/09/06 06:23:49;;;;;;;11.77;7.15;;;18.00;99.90;;;;;;5025582;28;21464;-71
2022/09/06 06:26:15;;;;;;;13.88;7.13;;;18.10;99.90;;;;;;5021217;28;20276;-72
2022/09/06 06:28:41;;;;;;;12.40;7.20;;;18.10;99.90;;;;;;5007574;28;20025;-71
2022/09/06 06:31:09;;;;;;;16.15;7.50;;;18.10;99.90;;;;;;5008815;28;20123;-71
2022/09/06 06:33:35;;;;;;;13.70;7.50;;;18.10;99.90;;;;;;5022639;28;20063;-72
2022/09/06 06:36:16;;;;;;;16.08;8.30;;;18.10;99.90;;;;;;5028087;28;20495;-72
2022/09/06 06:38:43;;;;;;;12.13;7.03;;;18.20;99.90;;;;;;5020723;28;20045;-71
2022/09/06 06:41:11;;;;;;;12.80;7.55;;;18.20;99.90;;;;;;5007142;28;20048;-70
2022/09/06 06:43:37;;;;;;;13.15;7.28;;;18.30;99.90;;;;;;5021234;28;20041;-71
2022/09/06 06:46:03;;;;;;;13.63;7.72;;;18.30;99.90;;;;;;5025240;28;20052;-71
2022/09/06 06:48:29;;;;;;;12.57;7.35;;;18.30;99.90;;;;;;5057943;28;20090;-71
2022/09/06 06:50:55;;;;;;;13.48;7.38;;;18.30;99.90;;;;;;5029698;28;20628;-72
2022/09/06 06:53:21;;;;;;;14.73;7.38;;;18.40;99.90;;;;;;5011651;28;20147;-72
2022/09/06 06:55:47;;;;;;;13.48;7.63;;;18.40;99.90;;;;;;5043976;28;20120;-72
2022/09/06 06:58:17;;;;;;;12.50;7.18;;;18.40;99.90;;;;;;5043915;28;20029;-72
2022/09/06 07:00:43;;;;;;;12.52;7.50;;;18.40;99.90;;;;;;5009163;28;20503;-72
2022/09/06 07:03:11;;;;;;;11.57;7.53;;;18.50;99.90;;;;;;5007936;28;20124;-72
2022/09/06 07:05:37;;;;;;;13.52;7.60;;;18.50;99.90;;;;;;5042508;28;20077;-72
2022/09/06 07:08:04;;;;;;;13.65;8.27;;;18.50;99.90;;;;;;5023617;28;20041;-71
2022/09/06 07:10:30;;;;;;;15.05;7.82;;;18.50;99.90;;;;;;5058993;28;20120;-70
2022/09/06 07:12:56;;;;;;;12.50;7.10;;;18.60;99.90;;;;;;5007340;28;20156;-72
2022/09/06 07:15:22;;;;;;;12.65;8.13;;;18.60;99.90;;;;;;5057464;28;20072;-71
2022/09/06 07:17:47;;;;;;;12.95;8.23;;;18.60;99.90;;;;;;5027461;28;20463;-71
2022/09/06 07:20:16;;;;;;;12.95;7.75;;;18.70;99.90;;;;;;5026554;28;20045;-72
2022/09/06 07:22:42;;;;;;;13.00;8.32;;;18.70;99.90;;;;;;5019324;28;20938;-72
2022/09/06 07:25:10;;;;;;;14.45;8.48;;;18.70;99.90;;;;;;5030550;28;20035;-71
2022/09/06 07:27:36;;;;;;;14.27;8.13;;;18.80;99.90;;;;;;5012696;28;20099;-71
2022/09/06 07:30:05;;;;;;;12.40;7.30;;;18.80;99.90;;;;;;5041903;28;20045;-71
2022/09/06 07:32:33;;;;;;;13.65;8.02;;;18.90;99.90;;;;;;5028980;28;20429;-71
2022/09/06 07:34:59;;;;;;;15.13;8.45;;;18.90;99.90;;;;;;5020833;28;20078;-72
2022/09/06 07:37:24;;;;;;;13.30;7.95;;;18.90;99.90;;;;;;5012158;28;20076;-70
2022/09/06 07:39:50;;;;;;;11.95;7.82;;;19.00;99.90;;;;;;5013116;28;20053;-71
2022/09/06 07:42:16;;;;;;;13.88;8.50;;;19.10;99.90;;;;;;5004945;28;20483;-71
2022/09/06 07:44:42;;;;;;;11.95;7.60;;;19.10;99.90;;;;;;5057450;28;20067;-72
2022/09/06 07:47:09;;;;;;;12.65;8.40;;;19.30;99.90;;;;;;5025435;28;20037;-71
2022/09/06 07:49:35;;;;;;;13.57;7.93;;;19.50;99.90;;;;;;5025529;28;20065;-71
2022/09/06 07:52:03;;;;;;;12.00;7.90;;;19.80;99.90;;;;;;5043700;28;20056;-72
2022/09/06 07:54:28;;;;;;;12.55;7.57;;;20.00;99.90;;;;;;5015507;28;20438;-71
2022/09/06 07:56:54;;;;;;;12.73;8.00;;;20.20;99.90;;;;;;5010588;28;20037;-72
2022/09/06 07:59:20;;;;;;;12.25;8.02;;;20.40;99.90;;;;;;5007554;28;20517;-70
2022/09/06 08:01:47;;;;;;;15.32;7.72;;;20.60;99.90;;;;;;5046033;28;20036;-72
2022/09/06 08:04:13;;;;;;;12.45;7.97;;;20.80;99.90;;;;;;5026037;28;20111;-72
2022/09/06 08:06:42;;;;;;;13.50;7.80;;;20.80;99.90;;;;;;5028252;28;20040;-71
2022/09/06 08:09:08;;;;;;;11.45;7.85;;;20.70;99.90;;;;;;5029795;28;20037;-72
2022/09/06 08:11:36;;;;;;;14.43;8.15;;;20.60;99.90;;;;;;5011983;28;20071;-72
2022/09/06 08:14:04;;;;;;;13.65;7.72;;;20.60;99.90;;;;;;5009108;28;20129;-72
2022/09/06 08:16:31;;;;;;;11.90;7.60;;;20.60;99.90;;;;;;5017366;28;20473;-71
2022/09/06 08:18:59;;;;;;;12.40;7.82;;;20.50;99.90;;;;;;5015021;28;20073;-71
2022/09/06 08:21:27;;;;;;;11.48;7.45;;;21.20;99.90;;;;;;5023598;28;20116;-71
2022/09/06 08:23:56;;;;;;;13.82;7.43;;;20.60;99.90;;;;;;5038479;28;20037;-71
2022/09/06 08:26:24;;;;;;;13.48;8.60;;;20.70;99.90;;;;;;5018955;28;20048;-71
2022/09/06 08:28:58;;;;;;;11.68;8.00;;;20.90;99.90;;;;;;5021814;28;20033;-72
2022/09/06 08:31:25;;;;;;;13.40;8.30;;;21.00;99.90;;;;;;5028000;28;20494;-72
2022/09/06 08:33:52;;;;;;;12.73;7.57;;;21.20;99.90;;;;;;5044403;28;20113;-72
2022/09/06 08:36:18;;;;;;;14.60;8.05;;;21.30;99.90;;;;;;5025453;28;20076;-72
2022/09/06 08:38:44;;;;;;;12.07;7.47;;;21.50;99.90;;;;;;5022194;28;20442;-72
2022/09/06 08:41:16;;;;;;;12.10;6.82;;;21.50;99.90;;;;;;5023618;28;20111;-71
2022/09/06 08:43:58;;;;;;;13.47;6.80;;;21.40;99.90;;;;;;5038206;28;20415;-72
2022/09/06 08:46:35;;;;;;;12.25;7.40;;;21.40;99.90;;;;;;5042515;28;20041;-73
2022/09/06 08:49:02;;;;;;;10.75;7.18;;;21.40;99.90;;;;;;5037882;28;20056;-71
2022/09/06 08:51:36;;;;;;;11.95;7.30;;;21.50;99.90;;;;;;5029549;28;20044;-72
2022/09/06 08:54:17;;;;;;;11.48;7.30;;;21.60;99.90;;;;;;5006512;28;20060;-72
2022/09/06 08:57:07;;;;;;;10.85;6.93;;;21.90;99.90;;;;;;5061618;28;20044;-71
2022/09/06 08:59:37;;;;;;;13.15;7.32;;;21.90;99.90;;;;;;5025413;28;20037;-71
2022/09/06 09:02:19;;;;;;;14.15;7.35;;;22.10;99.90;;;;;;5004230;28;20403;-71
2022/09/06 09:04:52;;;;;;;12.50;7.03;;;22.20;99.90;;;;;;5012678;28;20037;-72
2022/09/06 09:07:42;;;;;;;10.50;6.53;;;22.30;99.90;;;;;;5025825;28;20044;-73
2022/09/06 09:10:15;;;;;;;11.55;7.88;;;22.40;99.90;;;;;;5022347;28;20462;-73
2022/09/06 09:12:46;;;;;;;12.02;7.30;;;22.50;99.90;;;;;;5042755;28;20512;-71
2022/09/06 09:15:13;;;;;;;12.65;7.43;;;22.60;99.90;;;;;;5029223;28;20300;-72
2022/09/06 09:17:40;;;;;;;13.85;8.20;;;22.70;99.90;;;;;;5041987;28;20041;-73
2022/09/06 09:20:09;;;;;;;12.80;7.95;;;22.80;99.90;;;;;;5025436;28;20173;-72
2022/09/06 09:22:37;;;;;;;14.93;8.45;;;22.80;99.90;;;;;;5023902;28;20072;-72
2022/09/06 09:25:05;;;;;;;16.95;8.27;;;22.80;99.90;;;;;;5040579;28;20526;-73
2022/09/06 09:27:32;;;;;;;13.48;7.93;;;22.90;99.90;;;;;;5037246;28;20421;-72
2022/09/06 09:30:04;;;;;;;13.02;7.38;;;23.00;99.90;;;;;;5040913;28;20037;-72
2022/09/06 09:32:39;;;;;;;12.77;7.43;;;23.10;99.90;;;;;;5004495;28;20095;-73
2022/09/06 09:35:26;;;;;;;11.00;6.43;;;23.30;99.90;;;;;;5025686;28;20068;-72
2022/09/06 09:38:02;;;;;;;12.48;7.22;;;23.40;99.90;;;;;;5027435;28;20128;-73
2022/09/06 09:40:32;;;;;;;11.95;7.90;;;23.40;99.90;;;;;;5028701;28;20045;-73
2022/09/06 09:43:09;;;;;;;13.93;7.95;;;23.20;99.90;;;;;;5044444;28;20048;-73
2022/09/06 09:45:35;;;;;;;12.57;7.85;;;23.20;99.90;;;;;;5025269;28;20082;-73
2022/09/06 09:48:25;;;;;;;13.50;8.52;;;23.20;99.90;;;;;;5011735;28;20045;-71
2022/09/06 09:50:56;;;;;;;14.25;7.55;;;23.30;99.90;;;;;;5072446;28;20037;-72
2022/09/06 09:53:25;;;;;;;12.95;7.78;;;23.30;99.90;;;;;;5041655;28;20037;-72
2022/09/06 09:55:56;;;;;;;13.40;7.80;;;23.10;99.90;;;;;;5043193;28;20140;-72
2022/09/06 09:58:36;;;;;;;12.93;7.57;;;23.20;99.90;;;;;;5036460;28;20588;-73
2022/09/06 10:01:24;;;;;;;11.15;6.60;;;23.20;99.90;;;;;;5072296;28;20033;-73
2022/09/06 10:03:51;;;;;;;11.75;7.13;;;23.30;99.90;;;;;;5073255;28;20049;-73
2022/09/06 10:06:25;;;;;;;14.02;7.50;;;23.30;99.90;;;;;;5043113;28;20047;-72
2022/09/06 10:08:50;;;;;;;10.57;6.35;;;23.30;99.90;;;;;;5038783;28;20037;-71
2022/09/06 10:11:46;;;;;;;11.02;6.85;;;23.40;99.90;;;;;;5024439;28;20041;-73
2022/09/06 10:14:40;;;;;;;10.75;6.78;;;23.50;99.90;;;;;;5039419;28;21130;-72
2022/09/06 10:17:06;;;;;;;11.27;7.15;;;23.40;99.90;;;;;;5028570;28;20053;-72
2022/09/06 10:19:39;;;;;;;12.65;7.43;;;23.40;99.90;;;;;;5040860;28;20108;-71
2022/09/06 10:22:14;;;;;;;14.00;7.20;;;23.40;99.90;;;;;;5053234;28;21560;-72
2022/09/06 10:24:57;;;;;;;13.57;7.15;;;23.50;99.90;;;;;;5037082;28;20041;-72
2022/09/06 10:27:26;;;;;;;12.80;7.68;;;23.60;99.90;;;;;;5020353;28;20685;-73
2022/09/06 10:30:04;;;;;;;13.95;6.90;;;23.60;99.90;;;;;;5038206;28;20596;-73
2022/09/06 10:32:48;;;;;;;12.05;7.22;;;23.60;99.90;;;;;;5035850;28;20045;-72
2022/09/06 10:35:20;;;;;;;11.93;7.10;;;23.60;99.90;;;;;;5074047;28;20097;-72
2022/09/06 10:38:18;;;;;;;12.45;7.13;;;23.70;99.90;;;;;;5023403;28;20045;-72
2022/09/06 10:40:56;;;;;;;11.60;6.45;;;23.70;99.90;;;;;;5034925;28;20060;-73
2022/09/06 10:43:25;;;;;;;11.68;6.72;;;23.80;99.90;;;;;;5040658;28;20043;-71
2022/09/06 10:45:58;;;;;;;12.38;7.13;;;23.80;99.90;;;;;;5040812;28;20055;-72
2022/09/06 10:48:32;;;;;;;13.30;7.05;;;23.80;99.90;;;;;;5024832;28;20061;-73
2022/09/06 10:51:17;;;;;;;15.13;7.88;;;24.00;99.90;;;;;;5072223;28;20603;-72
2022/09/06 10:53:48;;;;;;;13.80;7.07;;;24.00;99.90;;;;;;5072878;28;20115;-71
2022/09/06 10:56:27;;;;;;;13.05;7.18;;;24.00;99.90;;;;;;5014963;28;20511;-71
2022/09/06 10:59:08;;;;;;;11.73;6.93;;;24.10;99.90;;;;;;5007178;28;20622;-73
2022/09/06 11:01:40;;;;;;;13.13;6.82;;;24.10;99.90;;;;;;5067703;28;20055;-72
2022/09/06 11:04:10;;;;;;;12.90;6.60;;;24.20;99.90;;;;;;5032424;28;20471;-73
2022/09/06 11:06:44;;;;;;;15.35;6.88;;;24.30;99.90;;;;;;5034906;28;20082;-73
2022/09/06 11:09:46;;;;;;;11.82;6.88;;;24.40;99.90;;;;;;5038510;28;20107;-73
2022/09/06 11:12:16;;;;;;;11.38;6.93;;;24.40;99.90;;;;;;5037814;28;20403;-72
2022/09/06 11:14:43;;;;;;;11.43;6.20;;;;;;;;;;5038926;28;20049;-72
2022/09/06 11:17:20;;;;;;;13.55;7.30;;;24.60;99.90;;;;;;5041543;28;20033;-72
2022/09/06 11:20:07;;;;;;;12.57;6.40;;;24.60;99.90;;;;;;5059046;28;20130;-72
2022/09/06 11:22:45;;;;;;;12.07;5.70;;;24.70;99.90;;;;;;5071981;28;20116;-73
2022/09/06 11:25:23;;;;;;;10.25;5.40;;;24.70;99.90;;;;;;5035369;28;20056;-73
2022/09/06 11:27:58;;;;;;;11.00;5.22;;;24.90;99.90;;;;;;5036573;28;20046;-73
2022/09/06 11:30:25;;;;;;;12.13;5.80;;;24.40;99.90;;;;;;5040182;28;20040;-73
2022/09/06 11:33:10;;;;;;;10.60;5.30;;;24.90;99.90;;;;;;5009319;28;20399;-73
2022/09/06 11:35:38;;;;;;;11.32;4.82;;;25.10;99.90;;;;;;5070811;28;20036;-72
2022/09/06 11:38:24;;;;;;;11.93;5.40;;;24.90;99.90;;;;;;5043090;28;20048;-71
2022/09/06 11:40:59;;;;;;;10.40;5.68;;;25.10;99.90;;;;;;5045099;28;20033;-72
2022/09/06 11:43:49;;;;;;;10.77;5.30;;;25.20;99.90;;;;;;5030044;28;20526;-72
2022/09/06 11:46:33;;;;;;;12.27;5.18;;;25.10;99.90;;;;;;5056640;28;20056;-72
2022/09/06 11:49:30;;;;;;;10.15;4.80;;;25.30;99.90;;;;;;5040556;28;20133;-74
2022/09/06 11:52:00;;;;;;;9.90;5.07;;;25.40;99.90;;;;;;5057143;28;20082;-72
2022/09/06 11:54:43;;;;;;;9.73;4.90;;;25.40;99.90;;;;;;5028182;28;20049;-73
2022/09/06 11:57:20;;;;;;;11.85;4.72;;;25.30;99.90;;;;;;5042021;28;20040;-72
2022/09/06 11:59:48;;;;;;;8.88;4.70;;;25.60;99.90;;;;;;5043382;28;20120;-72
2022/09/06 12:02:34;;;;;;;9.75;4.68;;;25.40;99.90;;;;;;5044532;28;20136;-72
2022/09/06 12:05:00;;;;;;;11.70;5.00;;;25.40;99.90;;;;;;5027154;28;20095;-73
2022/09/06 12:07:30;;;;;;;12.68;4.65;;;25.50;99.90;;;;;;5043120;28;20037;-72
2022/09/06 12:10:16;;;;;;;9.88;4.30;;;23.40;99.90;;;;;;5044430;28;20444;-72
2022/09/06 12:12:47;;;;;;;11.10;4.78;;;25.60;99.90;;;;;;5077263;28;20049;-74
2022/09/06 12:15:27;;;;;;;10.43;4.60;;;25.70;99.90;;;;;;5045574;28;20037;-72
2022/09/06 12:17:53;;;;;;;10.20;4.30;;;25.80;99.90;;;;;;5045247;28;20033;-73
2022/09/06 12:20:47;;;;;;;8.57;4.50;;;25.90;99.90;;;;;;5045532;28;20116;-72
2022/09/06 12:23:45;;;;;;;9.55;4.90;;;25.90;99.90;;;;;;5044921;28;20040;-73
2022/09/06 12:26:11;;;;;;;11.45;5.15;;;26.30;99.90;;;;;;5007175;28;20059;-72
2022/09/06 12:28:42;;;;;;;9.55;4.80;;;25.90;99.90;;;;;;5041640;28;22697;-72
2022/09/06 12:31:37;;;;;;;12.10;4.80;;;26.20;99.90;;;;;;5075823;28;20045;-72
2022/09/06 12:34:20;;;;;;;9.32;4.20;;;26.00;99.90;;;;;;5036742;28;20053;-72
2022/09/06 12:36:59;;;;;;;8.68;4.40;;;26.00;99.90;;;;;;5045328;28;20044;-74
2022/09/06 12:39:25;;;;;;;9.38;4.45;;;26.10;99.90;;;;;;5038891;28;20045;-72
2022/09/06 12:41:58;;;;;;;10.43;5.15;;;26.10;99.90;;;;;;5042216;28;20053;-72
2022/09/06 12:44:36;;;;;;;10.63;5.00;;;26.10;99.90;;;;;;5050847;28;20099;-72
2022/09/06 12:47:15;;;;;;;9.38;4.53;;;26.10;99.90;;;;;;5041048;28;20045;-72
2022/09/06 12:49:41;;;;;;;13.35;5.07;;;26.30;99.90;;;;;;5054490;28;20523;-72
2022/09/06 12:52:14;;;;;;;13.27;5.25;;;26.20;99.90;;;;;;5041394;28;20064;-72
2022/09/06 12:54:48;;;;;;;11.30;5.30;;;26.20;99.90;;;;;;5043003;28;20033;-73
2022/09/06 12:57:14;;;;;;;10.57;5.55;;;26.30;99.90;;;;;;5044951;28;20043;-74
2022/09/06 12:59:48;;;;;;;9.90;5.03;;;26.30;99.90;;;;;;5042130;28;20037;-72
2022/09/06 13:02:19;;;;;;;10.13;4.60;;;26.30;99.90;;;;;;5041690;28;20044;-74